Time;durP1;ratioP1;P1;durP2;ratioP2;P2;SDS_P1;SDS_P2;PMS_P1;PMS_P2;Temp;Humidity;BMP_temperature;BMP_pressure;BME280_temperature;BME280_humidity;BME280_pressure;Samples;Min_cycle;Max_cycle;Signal;HPM_P1;HPM_P2
2023/06/28 00:01:07;;;;;;;5.10;2.20;;;;;;;13.82;83.14;98723.66;107774;1308;22252;-50
2023/06/28 00:03:32;;;;;;;5.70;2.30;;;;;;;13.81;82.93;98720.39;107705;1309;22249;-41
2023/06/28 00:05:57;;;;;;;4.10;2.30;;;;;;;13.82;82.81;98720.13;107716;1309;24284;-49
2023/06/28 00:08:22;;;;;;;3.60;2.10;;;;;;;13.84;82.35;98722.79;107707;1309;22281;-52
2023/06/28 00:10:51;;;;;;;4.30;2.00;;;;;;;13.77;83.95;98722.45;107723;1309;22419;-51
2023/06/28 00:13:17;;;;;;;5.20;1.90;;;;;;;13.76;84.44;98725.00;107711;1309;22228;-44
2023/06/28 00:15:43;;;;;;;3.50;2.00;;;;;;;13.76;83.69;98717.45;107687;1309;23061;-48
2023/06/28 00:18:08;;;;;;;5.40;2.50;;;;;;;13.73;84.39;98715.90;107714;1309;22445;-47
2023/06/28 00:20:34;;;;;;;3.00;2.00;;;;;;;13.71;84.73;98712.89;107717;1309;22244;-49
2023/06/28 00:23:00;;;;;;;5.50;2.00;;;;;;;13.68;85.20;98712.20;107716;1309;22256;-49
2023/06/28 00:25:25;;;;;;;4.10;2.20;;;;;;;13.69;84.88;98714.94;107745;1309;22307;-53
2023/06/28 00:27:50;;;;;;;3.10;2.20;;;;;;;13.62;86.15;98719.39;107688;1309;22250;-50
2023/06/28 00:30:16;;;;;;;5.30;2.00;;;;;;;13.66;84.61;98715.02;107720;1309;22175;-52
2023/06/28 00:32:41;;;;;;;2.80;2.10;;;;;;;13.65;85.57;98715.31;107706;1309;22222;-45
2023/06/28 00:35:07;;;;;;;6.30;2.60;;;;;;;13.61;86.18;98715.03;107706;1309;22258;-52
2023/06/28 00:37:32;;;;;;;3.50;2.10;;;;;;;13.64;85.05;98718.04;107725;1309;22995;-45
2023/06/28 00:39:58;;;;;;;4.00;2.00;;;;;;;13.59;85.72;98716.81;107707;1309;22439;-47
2023/06/28 00:42:24;;;;;;;4.00;2.20;;;;;;;13.59;85.27;98720.13;107694;1309;22250;-48
2023/06/28 00:44:49;;;;;;;5.30;2.20;;;;;;;13.55;85.90;98718.17;107732;1309;22409;-51
2023/06/28 00:47:15;;;;;;;3.40;2.00;;;;;;;13.55;85.37;98716.45;107700;1309;22233;-48
2023/06/28 00:49:41;;;;;;;12.20;3.10;;;;;;;13.54;85.13;98721.21;107722;1309;22959;-49
2023/06/28 00:52:08;;;;;;;3.80;2.30;;;;;;;13.50;85.50;98720.10;107718;1309;22460;-50
2023/06/28 00:54:33;;;;;;;2.60;2.30;;;;;;;13.45;86.46;98719.46;107711;1309;22213;-46
2023/06/28 00:56:59;;;;;;;7.50;2.30;;;;;;;13.44;86.16;98717.39;107728;1309;22401;-50
2023/06/28 00:59:26;;;;;;;2.90;2.00;;;;;;;13.46;86.37;98717.10;107736;1309;22260;-48
2023/06/28 01:01:52;;;;;;;2.70;1.80;;;;;;;13.49;86.36;98715.61;107694;1309;23085;-54
2023/06/28 01:04:17;;;;;;;7.90;2.50;;;;;;;13.46;86.75;98714.64;107716;1309;22283;-44
2023/06/28 01:06:51;;;;;;;3.80;2.60;;;;;;;13.45;85.46;98712.95;107698;1309;22218;-49
2023/06/28 01:09:18;;;;;;;6.00;2.40;;;;;;;13.40;85.72;98713.08;107708;1309;22184;-48
2023/06/28 01:11:45;;;;;;;3.20;2.20;;;;;;;13.39;86.21;98715.62;107729;1309;22255;-41
2023/06/28 01:14:11;;;;;;;4.80;2.30;;;;;;;13.38;86.42;98718.02;107715;1309;22415;-44
2023/06/28 01:16:36;;;;;;;3.70;2.50;;;;;;;13.35;87.40;98718.45;107736;1309;22392;-48
2023/06/28 01:19:05;;;;;;;5.20;2.30;;;;;;;13.32;87.25;98716.02;107721;1309;22230;-54
2023/06/28 01:21:34;;;;;;;4.40;2.00;;;;;;;13.31;86.94;98717.37;107757;1293;22417;-51
2023/06/28 01:24:02;;;;;;;7.20;2.10;;;;;;;13.29;86.84;98716.27;107729;1309;23313;-51
2023/06/28 01:26:28;;;;;;;4.60;2.40;;;;;;;13.26;86.80;98716.59;107751;1309;22095;-48
2023/06/28 01:28:54;;;;;;;2.30;2.10;;;;;;;13.21;87.91;98715.41;107740;1309;22153;-52
2023/06/28 01:31:20;;;;;;;3.50;2.30;;;;;;;13.20;87.85;98716.56;107706;1309;22132;-58
2023/06/28 01:33:46;;;;;;;3.90;2.70;;;;;;;13.19;87.32;98717.51;107702;1309;22242;-47
2023/06/28 01:36:12;;;;;;;4.30;2.20;;;;;;;13.20;87.03;98716.17;107736;1309;22251;-54
2023/06/28 01:38:39;;;;;;;4.00;2.00;;;;;;;13.14;87.75;98713.83;107694;1309;22286;-42
2023/06/28 01:41:06;;;;;;;3.30;2.30;;;;;;;13.11;88.32;98712.31;107722;1309;22288;-51
2023/06/28 01:43:32;;;;;;;3.40;2.10;;;;;;;13.09;88.54;98715.94;107710;1309;22241;-44
2023/06/28 01:45:58;;;;;;;9.30;2.70;;;;;;;13.10;88.17;98714.48;107700;1309;22237;-55
2023/06/28 01:48:24;;;;;;;3.10;2.20;;;;;;;13.12;87.61;98712.45;107713;1290;22469;-53
2023/06/28 01:50:49;;;;;;;3.90;2.30;;;;;;;13.10;87.78;98712.89;107733;1309;22394;-48
2023/06/28 01:53:14;;;;;;;7.80;2.30;;;;;;;13.10;87.99;98707.44;107752;1309;22248;-45
2023/06/28 01:55:40;;;;;;;4.40;2.10;;;;;;;13.09;88.08;98708.73;107707;1309;22224;-50
2023/06/28 01:58:05;;;;;;;7.40;2.40;;;;;;;13.10;86.97;98712.72;107691;1309;22270;-50
2023/06/28 02:00:30;;;;;;;3.10;1.80;;;;;;;13.14;86.82;98713.17;107720;1309;22396;-51
2023/06/28 02:02:56;;;;;;;3.80;2.10;;;;;;;13.13;87.40;98709.67;107730;1309;22241;-48
2023/06/28 02:05:21;;;;;;;2.40;2.00;;;;;;;13.10;88.39;98708.20;107738;1309;22242;-53
2023/06/28 02:07:46;;;;;;;4.30;2.20;;;;;;;13.08;88.22;98710.08;107705;1309;22938;-53
2023/06/28 02:10:12;;;;;;;8.40;2.40;;;;;;;13.10;87.55;98711.12;107687;1309;22377;-45
2023/06/28 02:12:37;;;;;;;4.10;2.20;;;;;;;13.08;88.28;98709.86;107711;1309;23020;-44
2023/06/28 02:15:04;;;;;;;4.00;1.90;;;;;;;13.08;88.21;98711.46;107492;1309;22244;-50
2023/06/28 02:17:31;;;;;;;3.10;2.00;;;;;;;13.10;88.05;98715.89;107745;1309;22245;-50
2023/06/28 02:19:57;;;;;;;3.60;2.10;;;;;;;13.11;88.34;98716.33;107741;1309;22263;-46
2023/06/28 02:22:22;;;;;;;3.70;2.20;;;;;;;13.13;88.01;98715.33;107716;1309;22231;-51
2023/06/28 02:24:47;;;;;;;9.90;1.90;;;;;;;13.13;87.63;98720.95;107722;1309;23284;-53
2023/06/28 02:27:14;;;;;;;5.10;2.30;;;;;;;13.13;87.50;98725.04;107741;1309;22721;-50
2023/06/28 02:29:39;;;;;;;2.20;2.10;;;;;;;13.11;86.99;98722.54;107729;1309;22399;-51
2023/06/28 02:32:05;;;;;;;3.20;2.20;;;;;;;13.10;87.68;98722.47;107737;1309;22502;-53
2023/06/28 02:34:30;;;;;;;3.90;2.00;;;;;;;13.10;87.89;98721.36;107750;1309;23117;-52
2023/06/28 02:36:56;;;;;;;6.10;2.00;;;;;;;13.04;88.56;98722.48;107722;1309;22236;-46
2023/06/28 02:39:21;;;;;;;4.10;2.10;;;;;;;13.02;87.96;98721.07;107719;1309;22215;-47
2023/06/28 02:43:43;;;;;;;6.70;2.40;;;;;;;12.99;87.92;98713.02;107364;1303;544845;-51
2023/06/28 02:46:08;;;;;;;4.20;2.30;;;;;;;12.93;88.38;98712.40;107684;1309;22323;-42
2023/06/28 02:48:33;;;;;;;3.00;2.00;;;;;;;12.87;89.54;98713.00;107705;1309;22413;-43
2023/06/28 02:50:59;;;;;;;4.60;2.40;;;;;;;12.86;89.42;98712.73;107714;1309;23003;-51
2023/06/28 02:53:24;;;;;;;2.60;1.80;;;;;;;12.84;90.16;98711.45;107727;1309;22253;-43
2023/06/28 02:55:49;;;;;;;3.90;2.00;;;;;;;12.86;90.09;98701.87;107719;1309;22796;-40
2023/06/28 02:58:15;;;;;;;4.70;2.40;;;;;;;12.85;89.61;98705.10;107834;1307;139100;-44
2023/06/28 03:00:41;;;;;;;7.20;2.30;;;;;;;12.82;89.67;98705.10;107979;1307;22286;-53
2023/06/28 03:03:09;;;;;;;4.20;2.10;;;;;;;12.77;90.43;98703.54;107972;1307;22334;-48
2023/06/28 03:05:34;;;;;;;3.40;2.10;;;;;;;12.71;91.17;98703.98;107993;1307;23130;-45
2023/06/28 03:07:59;;;;;;;10.30;2.80;;;;;;;12.72;90.39;98704.83;108009;1285;22716;-45
2023/06/28 03:10:25;;;;;;;3.50;2.30;;;;;;;12.66;90.89;98705.27;107971;1307;23018;-47
2023/06/28 03:12:50;;;;;;;6.00;2.00;;;;;;;12.66;89.96;98712.77;108005;1288;22239;-46
2023/06/28 03:15:17;;;;;;;4.40;2.30;;;;;;;12.64;91.58;98710.27;108047;1306;23161;-40
2023/06/28 03:17:42;;;;;;;6.00;2.30;;;;;;;12.65;91.89;98711.11;108059;1306;22245;-46
2023/06/28 03:20:08;;;;;;;6.20;2.70;;;;;;;12.64;91.84;98713.46;108044;1306;22410;-50
2023/06/28 03:22:33;;;;;;;4.10;2.70;;;;;;;12.60;92.96;98712.88;108050;1306;22959;-56
2023/06/28 03:24:58;;;;;;;5.40;2.50;;;;;;;12.64;91.99;98712.05;108075;1306;22270;-51
2023/06/28 03:27:24;;;;;;;6.00;2.00;;;;;;;12.72;91.25;98708.88;108032;1306;22236;-45
2023/06/28 03:29:49;;;;;;;8.00;2.10;;;;;;;12.73;91.44;98706.31;108061;1306;22395;-50
2023/06/28 03:32:15;;;;;;;4.20;2.20;;;;;;;12.70;92.12;98707.76;108037;1306;23069;-47
2023/06/28 03:34:40;;;;;;;2.90;2.00;;;;;;;12.72;92.14;98711.64;108038;1306;22423;-41
2023/06/28 03:37:07;;;;;;;7.10;2.50;;;;;;;12.77;92.23;98709.73;108062;1306;22299;-46
2023/06/28 03:39:32;;;;;;;6.00;2.30;;;;;;;12.79;91.95;98709.56;108075;1306;22274;-54
2023/06/28 03:41:57;;;;;;;4.00;2.50;;;;;;;12.81;91.07;98713.96;108007;1306;22229;-49
2023/06/28 03:44:22;;;;;;;3.40;2.40;;;;;;;12.78;91.92;98709.81;108056;1306;22312;-44
2023/06/28 03:46:48;;;;;;;3.60;2.40;;;;;;;12.79;92.32;98709.92;108055;1306;24307;-49
2023/06/28 03:49:13;;;;;;;3.00;2.00;;;;;;;12.80;91.99;98706.64;108063;1306;22459;-46
2023/06/28 03:51:39;;;;;;;2.60;1.90;;;;;;;12.82;92.46;98700.88;108066;1306;22397;-54
2023/06/28 03:54:04;;;;;;;2.80;1.90;;;;;;;12.90;91.51;98700.48;108055;1306;23026;-57
2023/06/28 03:56:29;;;;;;;3.70;2.20;;;;;;;12.94;91.67;98703.73;108060;1306;22499;-51
2023/06/28 03:58:55;;;;;;;2.90;1.90;;;;;;;12.97;91.40;98703.30;108051;1306;25020;-46
2023/06/28 04:01:20;;;;;;;5.50;2.00;;;;;;;12.98;91.88;98704.45;108052;1306;22213;-48
2023/06/28 04:03:45;;;;;;;2.90;2.10;;;;;;;13.01;91.84;98705.77;108057;1306;22283;-56
2023/06/28 04:06:11;;;;;;;6.60;2.00;;;;;;;13.02;92.03;98704.86;108052;1306;22203;-50
2023/06/28 04:08:36;;;;;;;6.20;2.60;;;;;;;13.09;91.21;98709.30;108064;1306;22469;-53
2023/06/28 04:11:01;;;;;;;3.80;1.80;;;;;;;13.12;91.77;98705.00;108057;1306;22230;-51
2023/06/28 04:13:26;;;;;;;7.20;2.40;;;;;;;13.18;91.64;98705.48;108032;1306;23142;-50
2023/06/28 04:15:53;;;;;;;3.40;1.90;;;;;;;13.22;91.36;98707.95;108033;1306;22439;-45
2023/06/28 04:18:18;;;;;;;3.70;2.10;;;;;;;13.27;91.13;98710.77;108029;1306;22229;-51
2023/06/28 04:20:44;;;;;;;5.70;2.20;;;;;;;13.32;91.17;98710.38;108051;1285;22200;-55
2023/06/28 04:23:09;;;;;;;3.80;2.50;;;;;;;13.37;90.86;98706.47;108058;1306;22403;-48
2023/06/28 04:25:34;;;;;;;5.10;2.20;;;;;;;13.38;90.74;98706.92;108025;1306;22838;-47
2023/06/28 04:27:59;;;;;;;6.20;2.20;;;;;;;13.35;91.31;98706.46;108058;1306;22281;-40
2023/06/28 04:30:25;;;;;;;4.10;2.10;;;;;;;13.41;90.76;98702.33;108055;1306;23199;-49
2023/06/28 04:32:50;;;;;;;7.80;2.10;;;;;;;13.43;90.43;98701.61;108038;1306;22998;-52
2023/06/28 04:35:17;;;;;;;4.90;2.30;;;;;;;13.36;91.30;98703.55;108060;1306;22261;-50
2023/06/28 04:37:43;;;;;;;2.40;2.10;;;;;;;13.37;90.81;98705.95;108057;1306;22379;-50
2023/06/28 04:40:09;;;;;;;4.90;2.40;;;;;;;13.35;91.05;98702.59;108030;1306;22226;-52
2023/06/28 04:42:34;;;;;;;7.20;2.20;;;;;;;13.37;91.11;98701.35;108062;1306;22314;-49
2023/06/28 04:45:00;;;;;;;8.80;2.50;;;;;;;13.36;91.56;98696.70;108042;1306;22228;-49
2023/06/28 04:47:28;;;;;;;6.10;2.10;;;;;;;13.42;91.53;98698.70;108030;1306;22255;-59
2023/06/28 04:49:58;;;;;;;4.70;2.40;;;;;;;13.50;91.36;98696.74;108035;1306;22235;-53
2023/06/28 04:52:24;;;;;;;6.60;2.40;;;;;;;13.56;91.08;98698.54;108058;1306;22207;-46
2023/06/28 04:54:50;;;;;;;5.30;2.70;;;;;;;13.62;90.51;98701.05;108040;1306;22312;-48
2023/06/28 04:57:17;;;;;;;5.70;2.00;;;;;;;13.59;91.13;98698.84;108043;1306;22232;-52
2023/06/28 04:59:43;;;;;;;4.80;2.20;;;;;;;13.68;90.49;98704.28;108051;1306;22272;-49
2023/06/28 05:02:09;;;;;;;5.70;2.40;;;;;;;13.69;90.52;98706.85;108070;1306;22983;-47
2023/06/28 05:04:35;;;;;;;4.40;2.20;;;;;;;13.66;90.77;98705.37;108056;1306;23153;-56
2023/06/28 05:07:05;;;;;;;2.80;1.90;;;;;;;13.65;90.79;98701.52;108057;1306;22553;-55
2023/06/28 05:09:32;;;;;;;2.80;2.20;;;;;;;13.76;90.53;98698.09;108045;1306;22250;-42
2023/06/28 05:11:58;;;;;;;10.00;2.10;;;;;;;13.81;90.29;98700.16;108039;1306;22213;-56
2023/06/28 05:14:25;;;;;;;2.60;1.90;;;;;;;13.89;89.72;98701.62;108051;1306;22185;-48
2023/06/28 05:16:50;;;;;;;10.00;2.30;;;;;;;13.96;89.48;98699.98;108042;1289;22033;-47
2023/06/28 05:19:15;;;;;;;3.20;1.90;;;;;;;14.01;89.44;98697.14;108032;1306;22630;-48
2023/06/28 05:21:41;;;;;;;2.20;1.80;;;;;;;14.02;89.33;98695.46;108050;1306;22980;-42
2023/06/28 05:24:06;;;;;;;6.40;2.20;;;;;;;14.03;89.27;98699.95;108052;1306;22385;-48
2023/06/28 05:26:31;;;;;;;7.00;2.20;;;;;;;14.03;89.31;98701.63;108048;1306;22249;-57
2023/06/28 05:28:56;;;;;;;4.80;2.20;;;;;;;14.05;89.15;98699.50;108032;1306;22245;-49
2023/06/28 05:31:22;;;;;;;3.60;1.80;;;;;;;14.09;88.90;98701.77;108031;1306;22233;-48
2023/06/28 05:33:47;;;;;;;9.10;2.10;;;;;;;14.16;88.84;98701.73;108031;1306;22409;-49
2023/06/28 05:36:12;;;;;;;6.50;1.80;;;;;;;14.23;88.32;98696.83;108057;1306;22380;-49
2023/06/28 05:38:38;;;;;;;6.30;1.70;;;;;;;14.24;88.77;98687.76;108044;1306;23313;-50
2023/06/28 05:41:14;;;;;;;5.90;1.60;;;;;;;14.29;88.30;98692.10;108057;1306;22417;-53
2023/06/28 05:43:44;;;;;;;12.70;1.90;;;;;;;14.32;88.09;98690.50;108050;1306;23419;-55
2023/06/28 05:46:10;;;;;;;4.10;1.70;;;;;;;14.36;87.68;98695.61;108072;1306;22220;-50
2023/06/28 05:48:35;;;;;;;5.00;2.50;;;;;;;14.43;86.97;98691.33;108091;1306;22253;-53
2023/06/28 05:51:01;;;;;;;5.10;1.80;;;;;;;14.50;86.89;98691.67;108049;1306;22490;-50
2023/06/28 05:53:26;;;;;;;3.90;1.60;;;;;;;14.62;86.42;98686.85;108060;1306;22396;-45
2023/06/28 05:55:51;;;;;;;7.20;1.80;;;;;;;14.64;85.93;98690.23;108049;1306;22252;-53
2023/06/28 05:58:18;;;;;;;6.60;2.00;;;;;;;14.69;85.64;98688.41;108012;1306;22240;-49
2023/06/28 06:00:44;;;;;;;4.10;2.10;;;;;;;14.69;85.23;98692.31;108061;1306;22239;-45
2023/06/28 06:03:09;;;;;;;6.10;1.90;;;;;;;14.76;84.98;98693.61;107985;1304;23242;-46
2023/06/28 06:05:34;;;;;;;4.80;1.80;;;;;;;14.78;84.60;98689.41;108017;1307;22954;-45
2023/06/28 06:08:00;;;;;;;3.50;1.90;;;;;;;14.81;84.62;98689.90;108017;1307;22306;-47
2023/06/28 06:10:25;;;;;;;2.90;2.00;;;;;;;14.89;84.52;98690.23;108021;1307;22406;-46
2023/06/28 06:12:53;;;;;;;14.40;1.90;;;;;;;14.96;84.29;98692.71;107732;1307;22254;-50
2023/06/28 06:15:18;;;;;;;5.50;1.70;;;;;;;15.03;84.07;98694.58;108034;1307;22226;-51
2023/06/28 06:17:43;;;;;;;7.30;1.70;;;;;;;15.11;83.38;98697.11;107999;1307;22472;-46
2023/06/28 06:20:09;;;;;;;7.10;1.60;;;;;;;15.21;83.07;98697.70;108017;1307;23783;-53
2023/06/28 06:22:34;;;;;;;5.30;1.50;;;;;;;15.25;82.46;98696.23;107997;1307;22324;-47
2023/06/28 06:24:59;;;;;;;7.90;1.80;;;;;;;15.35;82.29;98694.36;107979;1307;22276;-50
2023/06/28 06:27:25;;;;;;;7.10;2.20;;;;;;;15.41;81.97;98694.23;107999;1307;23197;-52
2023/06/28 06:29:50;;;;;;;10.40;2.30;;;;;;;15.46;81.31;98703.20;108004;1307;22249;-52
2023/06/28 06:32:15;;;;;;;6.00;1.80;;;;;;;15.42;80.37;98703.14;108010;1307;22344;-47
2023/06/28 06:34:41;;;;;;;8.10;1.80;;;;;;;15.37;79.80;98694.21;108024;1285;22239;-53
2023/06/28 06:37:11;;;;;;;5.10;1.80;;;;;;;15.42;80.01;98691.70;107978;1307;23110;-43
2023/06/28 06:39:37;;;;;;;4.50;1.60;;;;;;;15.50;80.00;98690.84;108021;1307;22377;-41
2023/06/28 06:42:02;;;;;;;6.70;1.80;;;;;;;15.56;79.82;98692.80;108006;1307;22747;-45
2023/06/28 06:44:27;;;;;;;4.30;1.60;;;;;;;15.61;79.50;98685.98;108018;1307;22235;-52
2023/06/28 06:46:53;;;;;;;3.80;1.70;;;;;;;15.69;79.72;98683.20;108021;1307;23174;-48
2023/06/28 06:49:20;;;;;;;9.40;1.70;;;;;;;15.80;79.59;98682.80;107993;1307;22202;-56
2023/06/28 06:51:45;;;;;;;8.70;2.30;;;;;;;15.85;79.28;98682.53;108003;1307;22976;-59
2023/06/28 06:54:11;;;;;;;7.70;1.80;;;;;;;15.89;78.27;98684.29;108006;1307;22250;-48
2023/06/28 06:56:36;;;;;;;4.30;1.70;;;;;;;15.88;77.84;98676.97;108010;1307;23179;-52
2023/06/28 06:59:02;;;;;;;4.70;2.00;;;;;;;15.96;77.80;98675.09;108014;1307;22255;-55
2023/06/28 07:01:29;;;;;;;4.60;1.60;;;;;;;16.01;77.59;98677.95;108027;1307;22241;-44
2023/06/28 07:03:55;;;;;;;12.30;2.80;;;;;;;16.11;77.40;98675.55;107982;1307;22968;-42
2023/06/28 07:06:20;;;;;;;7.80;1.50;;;;;;;16.22;76.87;98673.16;108001;1307;22248;-48
2023/06/28 07:08:46;;;;;;;7.60;1.80;;;;;;;16.27;76.65;98672.86;108002;1307;23463;-48
2023/06/28 07:11:11;;;;;;;4.70;1.50;;;;;;;16.37;76.02;98671.33;107975;1307;22386;-45
2023/06/28 07:13:36;;;;;;;8.20;1.80;;;;;;;16.41;75.79;98672.11;107994;1307;22235;-42
2023/06/28 07:16:02;;;;;;;7.40;1.50;;;;;;;16.48;74.94;98675.61;107989;1307;22220;-49
2023/06/28 07:18:27;;;;;;;12.90;1.60;;;;;;;16.50;73.44;98675.80;107994;1307;22208;-46
2023/06/28 07:20:52;;;;;;;6.90;1.50;;;;;;;16.59;72.89;98668.41;108002;1307;23244;-51
2023/06/28 07:23:17;;;;;;;8.20;1.70;;;;;;;16.68;72.34;98669.94;108014;1307;22420;-52
2023/06/28 07:25:43;;;;;;;8.60;1.70;;;;;;;16.68;71.62;98668.29;108011;1307;22267;-51
2023/06/28 07:28:08;;;;;;;6.00;1.60;;;;;;;16.77;71.95;98660.09;107993;1307;22258;-52
2023/06/28 07:30:51;;;;;;;8.60;1.60;;;;;;;16.91;72.06;98662.02;108011;1307;22853;-50
2023/06/28 07:33:16;;;;;;;5.30;1.60;;;;;;;17.01;70.94;98666.25;108033;1307;22239;-43
2023/06/28 07:35:41;;;;;;;8.10;1.90;;;;;;;17.15;69.92;98662.85;107976;1307;22180;-50
2023/06/28 07:38:07;;;;;;;5.20;1.40;;;;;;;17.16;67.92;98658.29;108023;1307;22227;-48
2023/06/28 07:40:32;;;;;;;9.10;1.80;;;;;;;17.29;68.16;98662.77;108005;1307;22208;-44
2023/06/28 07:42:58;;;;;;;7.30;1.50;;;;;;;17.34;67.39;98669.09;107998;1307;23427;-40
2023/06/28 07:45:24;;;;;;;11.30;1.60;;;;;;;17.40;67.18;98664.59;107994;1307;22196;-47
2023/06/28 07:47:49;;;;;;;5.30;1.30;;;;;;;17.51;66.44;98673.15;108014;1307;23040;-51
2023/06/28 07:50:15;;;;;;;6.70;1.60;;;;;;;17.55;64.88;98673.95;108007;1307;22231;-50
2023/06/28 07:52:40;;;;;;;11.40;1.70;;;;;;;17.65;65.08;98673.98;107972;1307;22458;-48
2023/06/28 07:55:07;;;;;;;7.20;1.30;;;;;;;17.72;64.83;98668.53;108006;1307;22240;-51
2023/06/28 07:57:33;;;;;;;13.50;1.20;;;;;;;17.86;64.75;98673.08;108001;1307;23084;-47
2023/06/28 07:59:58;;;;;;;8.10;1.50;;;;;;;17.91;62.69;98669.20;107987;1307;22699;-54
2023/06/28 08:02:23;;;;;;;7.60;1.60;;;;;;;17.92;62.35;98670.35;107992;1307;22224;-56
2023/06/28 08:04:48;;;;;;;4.40;1.20;;;;;;;17.94;61.98;98670.71;108004;1307;22236;-48
2023/06/28 08:07:14;;;;;;;6.80;1.30;;;;;;;17.89;61.01;98674.71;108004;1307;23058;-43
2023/06/28 08:09:39;;;;;;;11.20;1.50;;;;;;;17.81;61.38;98674.73;108019;1307;22489;-53
2023/06/28 08:12:05;;;;;;;4.70;1.50;;;;;;;17.86;61.77;98681.05;107967;1307;23036;-54
2023/06/28 08:14:30;;;;;;;9.10;1.50;;;;;;;17.88;61.38;98682.66;107997;1307;22268;-52
2023/06/28 08:16:56;;;;;;;4.30;1.40;;;;;;;17.88;60.71;98676.93;107988;1307;22397;-43
2023/06/28 08:19:21;;;;;;;7.00;1.30;;;;;;;18.13;60.77;98672.94;107983;1307;22203;-48
2023/06/28 08:21:46;;;;;;;5.40;1.50;;;;;;;18.24;60.20;98678.95;107991;1307;22429;-51
2023/06/28 08:24:11;;;;;;;4.80;1.60;;;;;;;18.33;60.13;98679.75;107984;1307;22472;-47
2023/06/28 08:26:37;;;;;;;4.00;1.40;;;;;;;18.42;60.45;98673.52;107998;1307;22372;-42
2023/06/28 08:29:03;;;;;;;10.60;1.50;;;;;;;18.58;59.90;98674.30;108028;1307;22223;-53
2023/06/28 08:31:29;;;;;;;11.70;1.70;;;;;;;18.76;58.98;98675.67;108016;1307;22178;-53
2023/06/28 08:33:55;;;;;;;9.30;1.50;;;;;;;18.93;57.81;98681.52;108006;1307;22221;-52
2023/06/28 08:36:21;;;;;;;5.40;1.20;;;;;;;19.06;57.47;98680.92;108007;1307;22904;-49
2023/06/28 08:38:46;;;;;;;6.10;1.20;;;;;;;19.16;57.04;98684.56;108006;1307;22440;-45
2023/06/28 08:41:13;;;;;;;5.10;1.40;;;;;;;19.15;55.77;98677.94;107997;1307;23096;-47
2023/06/28 08:43:40;;;;;;;5.50;1.20;;;;;;;19.14;55.28;98678.17;108009;1307;22832;-55
2023/06/28 08:46:05;;;;;;;8.50;1.10;;;;;;;19.12;55.45;98677.58;108021;1307;22095;-55
2023/06/28 08:48:31;;;;;;;5.70;1.50;;;;;;;19.12;55.49;98672.87;108006;1307;23228;-46
2023/06/28 08:50:57;;;;;;;6.20;1.50;;;;;;;19.00;55.14;98671.19;107991;1307;22232;-48
2023/06/28 08:53:25;;;;;;;7.30;1.50;;;;;;;19.19;55.34;98670.56;107994;1307;22719;-52
2023/06/28 08:55:51;;;;;;;6.90;1.40;;;;;;;19.29;55.30;98664.92;108018;1307;23457;-50
2023/06/28 08:58:16;;;;;;;8.20;1.20;;;;;;;19.29;55.11;98663.86;107983;1307;22256;-53
2023/06/28 09:00:42;;;;;;;9.10;1.40;;;;;;;19.30;54.87;98661.52;108015;1299;23085;-47
2023/06/28 09:03:09;;;;;;;2.50;1.10;;;;;;;19.28;54.61;98662.89;108006;1298;22790;-48
2023/06/28 09:05:35;;;;;;;7.60;1.20;;;;;;;19.24;54.84;98674.46;107994;1307;22292;-46
2023/06/28 09:08:01;;;;;;;6.30;1.80;;;;;;;19.28;54.74;98665.77;108021;1304;22192;-49
2023/06/28 09:10:27;;;;;;;7.50;1.50;;;;;;;19.44;54.99;98662.58;107952;1307;22551;-55
2023/06/28 09:12:52;;;;;;;4.60;1.40;;;;;;;19.57;54.42;98664.05;108005;1307;22283;-52
2023/06/28 09:15:20;;;;;;;5.10;1.40;;;;;;;19.92;53.87;98656.21;107977;1307;22223;-51
2023/06/28 09:17:46;;;;;;;9.60;1.50;;;;;;;20.19;52.14;98656.16;108001;1307;22898;-49
2023/06/28 09:20:19;;;;;;;6.10;1.70;;;;;;;20.11;52.27;98655.64;107684;1307;22445;-52
2023/06/28 09:22:55;;;;;;;10.00;1.20;;;;;;;19.98;52.06;98662.45;108013;1307;22240;-43
2023/06/28 09:25:21;;;;;;;7.70;1.10;;;;;;;20.01;51.51;98659.20;107974;1307;22392;-54
2023/06/28 09:27:46;;;;;;;5.20;1.30;;;;;;;20.14;51.98;98655.48;108018;1307;22245;-46
2023/06/28 09:30:17;;;;;;;12.40;1.30;;;;;;;20.13;51.59;98656.30;107998;1307;22391;-43
2023/06/28 09:32:45;;;;;;;8.20;1.20;;;;;;;20.33;51.81;98655.23;107977;1307;22445;-48
2023/06/28 09:35:10;;;;;;;7.50;2.00;;;;;;;20.63;50.92;98655.98;108017;1307;22213;-48
2023/06/28 09:37:37;;;;;;;4.20;1.50;;;;;;;20.77;49.99;98662.19;107702;1307;22895;-52
2023/06/28 09:40:05;;;;;;;6.00;1.90;;;;;;;20.59;49.91;98656.27;107995;1307;22225;-53
2023/06/28 09:42:31;;;;;;;4.80;1.20;;;;;;;20.32;50.20;98653.75;107986;1307;22228;-52
2023/06/28 09:44:56;;;;;;;3.60;1.30;;;;;;;20.27;50.37;98657.69;107982;1307;22219;-50
2023/06/28 09:47:31;;;;;;;4.40;1.40;;;;;;;20.30;50.10;98651.89;108000;1307;23011;-43
2023/06/28 09:49:57;;;;;;;2.00;1.60;;;;;;;20.91;49.71;98642.54;107991;1307;22241;-46
2023/06/28 09:52:23;;;;;;;3.40;1.20;;;;;;;21.32;48.72;98641.76;107979;1307;22211;-54
2023/06/28 09:54:49;;;;;;;8.40;1.50;;;;;;;21.19;47.70;98645.62;107697;1307;22211;-50
2023/06/28 09:57:16;;;;;;;5.20;1.50;;;;;;;21.27;47.32;98645.71;108019;1307;22222;-51
2023/06/28 09:59:43;;;;;;;2.90;1.30;;;;;;;21.13;46.54;98652.05;108009;1307;22239;-54
2023/06/28 10:02:10;;;;;;;6.40;1.30;;;;;;;21.01;47.17;98653.75;107956;1299;23206;-48
2023/06/28 10:04:38;;;;;;;8.00;1.50;;;;;;;20.99;47.61;98652.01;107981;1298;22386;-47
2023/06/28 10:07:05;;;;;;;7.70;1.40;;;;;;;20.91;47.76;98659.47;108006;1306;22313;-51
2023/06/28 10:09:36;;;;;;;6.10;1.00;;;;;;;20.75;48.20;98663.61;108006;1306;23123;-55
2023/06/28 10:12:05;;;;;;;7.70;1.70;;;;;;;20.60;48.59;98664.11;108038;1306;22210;-48
2023/06/28 10:14:38;;;;;;;5.90;1.50;;;;;;;20.81;48.82;98659.62;107998;1306;22234;-56
2023/06/28 10:17:05;;;;;;;9.20;1.60;;;;;;;21.02;48.89;98670.48;107974;1304;22985;-52
2023/06/28 10:19:31;;;;;;;;;;;;;;;20.88;48.60;98676.13;108008;1302;23221;-48
2023/06/28 10:21:56;;;;;;;9.90;1.90;;;;;;;20.54;48.53;98667.44;108006;1306;23054;-51
2023/06/28 10:24:23;;;;;;;8.70;1.20;;;;;;;20.78;48.66;98667.09;108016;1307;22973;-44
2023/06/28 10:26:49;;;;;;;4.80;1.40;;;;;;;21.01;47.58;98664.88;108019;1305;23083;-51
2023/06/28 10:29:15;;;;;;;7.60;1.30;;;;;;;20.97;47.45;98658.77;108001;1304;22226;-47
2023/06/28 10:31:41;;;;;;;4.10;1.30;;;;;;;20.88;47.92;98655.48;108031;1306;22123;-48
2023/06/28 10:34:07;;;;;;;19.20;1.40;;;;;;;20.80;48.48;98661.49;107987;1306;22444;-56
2023/06/28 10:36:32;;;;;;;6.70;1.40;;;;;;;20.55;48.71;98667.55;108017;1306;22327;-46
2023/06/28 10:38:58;;;;;;;9.70;1.40;;;;;;;20.14;49.10;98674.99;108000;1301;22694;-57
2023/06/28 10:41:24;;;;;;;8.50;2.50;;;;;;;19.81;49.28;98666.73;107994;1306;22449;-46
2023/06/28 10:44:05;;;;;;;5.80;1.30;;;;;;;19.55;50.41;98663.70;107976;1301;22713;-55
2023/06/28 10:46:31;;;;;;;6.90;1.50;;;;;;;19.52;50.91;98661.89;108036;1305;22417;-50
2023/06/28 10:48:59;;;;;;;9.40;1.30;;;;;;;19.46;51.42;98661.77;108041;1306;22427;-46
2023/06/28 10:51:30;;;;;;;7.40;1.80;;;;;;;19.41;51.80;98657.82;108019;1301;22315;-47
2023/06/28 10:54:06;;;;;;;9.40;1.60;;;;;;;19.33;52.02;98664.70;108037;1306;22300;-51
2023/06/28 10:56:42;;;;;;;6.10;1.50;;;;;;;19.18;52.96;98658.91;107998;1300;22422;-42
2023/06/28 10:59:07;;;;;;;6.00;1.50;;;;;;;19.16;53.67;98655.04;108036;1306;22282;-54
2023/06/28 11:01:51;;;;;;;8.30;1.50;;;;;;;19.23;54.03;98656.50;107992;1307;22196;-37
2023/06/28 11:04:21;;;;;;;8.60;1.50;;;;;;;19.32;54.63;98663.39;107824;1307;22221;-41
2023/06/28 11:06:46;;;;;;;10.50;1.70;;;;;;;19.21;55.28;98674.47;108017;1306;22269;-39
2023/06/28 11:09:14;;;;;;;4.50;1.50;;;;;;;18.92;56.68;98692.09;108009;1306;22306;-39
2023/06/28 11:11:57;;;;;;;6.50;1.20;;;;;;;18.73;57.70;98679.67;107981;1306;22473;-38
2023/06/28 11:14:25;;;;;;;7.50;1.90;;;;;;;18.51;57.86;98686.36;108035;1306;22255;-40
2023/06/28 11:16:51;;;;;;;5.30;1.30;;;;;;;18.45;57.85;98691.55;108004;1302;22410;-40
2023/06/28 11:19:22;;;;;;;2.00;1.10;;;;;;;18.49;57.82;98697.89;107996;1306;23206;-39
2023/06/28 11:21:55;;;;;;;12.60;1.30;;;;;;;18.52;57.14;98698.33;108027;1306;22389;-36